首页
METAR-TAF:

METAR-TAF

机场 :

Sulphur Springs Municipal Airport

Sulphur Springs, 得克萨斯州, 美国

纬度: 33-09-40N, 经度: 095-37-16W, 海拔: 149米

当前天气观测

该预报发布于17分钟前的01:55 UTC
风速3节,风向东南
温度 28°C
湿度 55%
气压 1014 hPa
能見度: 16.1公里
天空无云

METAR: KSLR 140155Z AUTO 13003KT 10SM CLR 28/18 A2994 RMK AO2 T02750183

时间: 21:12 (02:12 UTC)


TAF: 丢失

超过4000个机场的气象观测和天气预报(METAR&TAF报告)。

可查询的气象台以黄色和红色小点在地图上表示。

将鼠标移到小点上方,可查看气象台名称。

然后点击查看天气观测和预报。

如需切换地图:点击带黑十字的绿色按钮放大地图;点击带横线的绿色按钮缩小地图;或者点击绿色箭头查看邻近地区的地图。


METAR-TAF: